Dares Beach, Maryland
Current Conditions -  °F | °C
As of 2:32 PM on Thursday 30 Oct 2014 (Local Time) from K2W6 Reporting Station
Broken Clouds Broken Clouds  
Wind Chill: 59°   Ceiling: 6000
Heat Index: 59°   Visibility: 10mi
Dew Point: 34°   Wind: 5mph
Humidity: 39%   Direction: 300°WNW
Pressure: 30.02"   Gusts: NA
Location:  38.528°N, 76.5949°W
Report Text: K2W6 301832Z AUTO 30004KT 10SM BKN060 15/01 A3002 RMK AO1
Loading
Personal Weather Stations






























Interactive Weather Map
Tropical Storm Tracking
New forecast layout! Learn more

10-Day Weather Forecast

Advertisements
Track Severe Weather on mobile